Time;durP1;ratioP1;P1;durP2;ratioP2;P2;SDS_P1;SDS_P2;PMS_P1;PMS_P2;Temp;Humidity;BMP_temperature;BMP_pressure;BME280_temperature;BME280_humidity;BME280_pressure;Samples;Min_cycle;Max_cycle;Signal;HPM_P1;HPM_P2
2022/03/19 00:00:40;;;;;;;61.42;31.85;;;0.20;99.90;;;;;;2602887;54;20890;31
2022/03/19 04:06:16;;;;;;;64.53;35.55;;;0.40;99.90;;;;;;2610365;54;20027;31
2022/03/19 04:11:43;;;;;;;60.35;34.55;;;0.40;99.90;;;;;;2602960;54;20027;31
2022/03/19 04:14:20;;;;;;;57.35;31.90;;;0.40;99.90;;;;;;2603095;54;20053;31
2022/03/19 04:16:56;;;;;;;61.10;34.35;;;0.40;99.90;;;;;;2603148;54;21368;31
2022/03/19 04:19:53;;;;;;;76.35;38.85;;;0.40;99.90;;;;;;2621507;46;20031;31
2022/03/19 04:22:41;;;;;;;75.18;39.50;;;0.50;99.90;;;;;;2701435;39;20568;31
2022/03/19 04:25:20;;;;;;;63.20;32.08;;;0.50;99.90;;;;;;2603071;54;21453;31
2022/03/19 04:27:55;;;;;;;74.97;40.20;;;0.50;99.90;;;;;;2603072;54;20080;31
2022/03/19 04:30:37;;;;;;;69.28;37.17;;;0.50;99.90;;;;;;2602981;54;20753;31
2022/03/19 04:33:13;;;;;;;74.80;39.90;;;0.50;99.90;;;;;;2602904;54;20850;31
2022/03/19 04:38:38;;;;;;;51.97;30.43;;;0.50;99.90;;;;;;2621621;46;19935;31
2022/03/19 04:41:16;;;;;;;69.90;36.97;;;0.50;99.90;;;;;;2719982;39;21778;31
2022/03/19 04:43:54;;;;;;;69.75;37.05;;;0.50;99.90;;;;;;2621229;46;20899;31
2022/03/19 04:46:32;;;;;;;63.30;35.22;;;0.50;99.90;;;;;;2603003;54;20920;31
2022/03/19 04:49:10;;;;;;;56.30;29.38;;;0.60;99.90;;;;;;2603002;54;20038;31
2022/03/19 04:51:48;;;;;;;52.80;28.75;;;0.60;99.90;;;;;;2621603;46;20027;31
2022/03/19 04:54:25;;;;;;;62.85;33.30;;;0.60;99.90;;;;;;2602939;54;20026;31
2022/03/19 04:57:02;;;;;;;57.38;30.42;;;0.60;99.90;;;;;;2602879;54;20035;31
2022/03/19 04:59:39;;;;;;;70.07;38.50;;;0.60;99.90;;;;;;2602933;54;20049;31
2022/03/19 05:02:20;;;;;;;68.78;39.38;;;0.60;99.90;;;;;;2602974;54;20033;31
2022/03/19 05:04:55;;;;;;;57.13;33.87;;;0.60;99.90;;;;;;2602775;54;20890;31
2022/03/19 05:07:35;;;;;;;64.55;37.10;;;0.60;99.90;;;;;;2602945;54;20259;31
2022/03/19 05:13:06;;;;;;;51.00;29.07;;;0.60;99.90;;;;;;2621365;46;20876;31
2022/03/19 05:15:42;;;;;;;58.37;30.27;;;0.60;99.90;;;;;;2602791;54;20104;31
2022/03/19 05:18:24;;;;;;;49.92;27.88;;;0.60;99.90;;;;;;2602201;54;21111;31
2022/03/19 05:20:59;;;;;;;53.28;29.13;;;0.60;99.90;;;;;;2602883;54;20601;31
2022/03/19 05:23:34;;;;;;;50.25;28.65;;;0.60;99.90;;;;;;2602847;54;20073;31
2022/03/19 05:26:13;;;;;;;67.60;37.75;;;0.60;99.90;;;;;;2621005;46;20034;31
2022/03/19 05:28:48;;;;;;;71.43;39.22;;;0.60;99.90;;;;;;2602996;54;20053;31
2022/03/19 05:31:39;;;;;;;70.75;39.33;;;0.60;99.90;;;;;;2602994;54;20034;31
2022/03/19 05:34:35;;;;;;;64.93;36.15;;;0.60;99.90;;;;;;2602924;54;21482;31
2022/03/19 05:37:16;;;;;;;69.82;38.17;;;0.60;99.90;;;;;;2602881;54;20026;31
2022/03/19 05:42:28;;;;;;;67.15;38.25;;;0.70;99.90;;;;;;2719703;39;21463;31
2022/03/19 05:45:05;;;;;;;72.32;36.70;;;0.70;99.90;;;;;;2621357;46;20034;31
2022/03/19 05:47:44;;;;;;;63.70;35.53;;;0.70;99.90;;;;;;2621182;46;22481;31
2022/03/19 05:50:26;;;;;;;58.78;36.67;;;0.80;99.90;;;;;;2602424;54;20750;31
2022/03/19 05:53:03;;;;;;;60.63;35.87;;;0.90;99.90;;;;;;2602813;54;20036;31
2022/03/19 05:55:38;;;;;;;54.63;30.60;;;0.90;99.90;;;;;;2719702;39;20708;31
2022/03/19 05:58:19;;;;;;;58.97;35.80;;;0.90;99.90;;;;;;2602918;54;20038;31
2022/03/19 06:00:54;;;;;;;57.28;33.40;;;1.00;99.90;;;;;;2602838;54;20031;31
2022/03/19 06:03:36;;;;;;;64.47;33.95;;;1.10;99.90;;;;;;2602669;54;20022;31
2022/03/19 06:06:17;;;;;;;67.40;35.70;;;1.10;99.90;;;;;;2601901;54;20038;31
2022/03/19 06:08:57;;;;;;;67.83;39.47;;;1.20;99.90;;;;;;2701202;39;20505;31
2022/03/19 06:11:39;;;;;;;60.90;35.15;;;1.30;99.90;;;;;;2602621;54;20026;31
2022/03/19 06:14:20;;;;;;;71.03;37.10;;;1.40;99.90;;;;;;2614767;46;20925;31
2022/03/19 06:16:58;;;;;;;57.83;33.00;;;1.50;99.90;;;;;;2621270;46;20540;31
2022/03/19 06:19:36;;;;;;;63.17;29.83;;;1.60;99.90;;;;;;2621427;46;20806;31
2022/03/19 06:22:10;;;;;;;60.42;29.52;;;1.70;99.90;;;;;;2602293;54;20038;31
2022/03/19 06:24:49;;;;;;;49.38;28.15;;;1.80;99.90;;;;;;2602468;54;20093;31
2022/03/19 06:27:26;;;;;;;63.10;29.45;;;2.10;99.90;;;;;;2601777;54;20743;31
2022/03/19 06:30:05;;;;;;;53.03;29.27;;;2.50;99.90;;;;;;2602549;54;21008;31
2022/03/19 06:32:41;;;;;;;47.15;27.70;;;3.00;99.90;;;;;;2602641;54;20884;31
2022/03/19 07:04:25;;;;;;;26.23;15.07;;;7.70;99.10;;;;;;2602380;54;20034;31
2022/03/19 07:06:59;;;;;;;21.35;14.50;;;8.00;97.10;;;;;;2602042;54;20523;31
2022/03/19 07:09:39;;;;;;;32.20;15.50;;;8.00;93.20;;;;;;2602337;54;20123;31
2022/03/19 07:12:18;;;;;;;33.65;16.20;;;8.10;91.60;;;;;;2602429;54;20611;31
2022/03/19 07:14:53;;;;;;;31.10;17.17;;;8.30;92.10;;;;;;2602253;54;20027;31
2022/03/19 07:17:29;;;;;;;25.25;16.45;;;8.70;91.90;;;;;;2620756;47;20038;31
2022/03/19 07:20:10;;;;;;;23.70;14.50;;;9.00;89.50;;;;;;2602432;54;20841;31
2022/03/19 07:22:50;;;;;;;31.27;16.87;;;9.20;85.20;;;;;;2602396;54;20026;31
2022/03/19 07:25:31;;;;;;;25.10;14.10;;;9.30;85.70;;;;;;2620434;47;20239;31
2022/03/19 07:28:12;;;;;;;21.98;15.13;;;9.30;84.30;;;;;;2602124;54;20030;31
2022/03/19 07:30:48;;;;;;;24.95;15.52;;;9.20;81.70;;;;;;2602382;54;20031;31
2022/03/19 07:33:24;;;;;;;;;;;8.90;81.40;;;;;;2621354;47;20050;31
2022/03/19 07:36:12;;;;;;;23.38;15.00;;;8.60;81.30;;;;;;2621350;46;20771;31
2022/03/19 07:38:48;;;;;;;25.40;13.85;;;8.40;81.50;;;;;;2603100;54;20022;31
2022/03/19 07:44:38;;;;;;;23.70;15.32;;;8.00;81.70;;;;;;2701449;39;20392;31
2022/03/19 07:47:16;;;;;;;23.20;15.40;;;7.90;82.90;;;;;;2772752;31;20625;31
2022/03/19 07:49:58;;;;;;;27.50;15.85;;;7.90;81.70;;;;;;2602931;54;20596;31
2022/03/19 07:52:43;;;;;;;27.20;15.95;;;8.00;81.40;;;;;;2602462;54;20932;31
2022/03/19 07:55:19;;;;;;;27.33;15.30;;;8.20;80.80;;;;;;2602980;54;20878;31
2022/03/19 07:57:59;;;;;;;24.92;16.85;;;8.30;80.60;;;;;;2603131;54;20026;31
2022/03/19 08:03:13;;;;;;;24.53;16.10;;;8.90;80.40;;;;;;2719881;39;20485;31
2022/03/19 08:05:50;;;;;;;25.90;16.33;;;9.10;78.30;;;;;;2602900;54;20874;31
2022/03/19 08:08:33;;;;;;;27.48;16.70;;;9.40;78.70;;;;;;2602279;54;20038;31
2022/03/19 08:11:10;;;;;;;26.90;17.40;;;9.60;77.10;;;;;;2602154;54;20073;31
2022/03/19 08:13:45;;;;;;;28.20;18.15;;;9.60;73.40;;;;;;2603133;54;20894;31
2022/03/19 08:16:22;;;;;;;28.37;18.97;;;9.70;74.80;;;;;;2617665;46;20640;31
2022/03/19 08:18:57;;;;;;;34.42;27.65;;;9.80;73.00;;;;;;2602841;54;20498;31
2022/03/19 08:21:34;;;;;;;26.70;19.60;;;10.00;74.40;;;;;;2602926;54;20022;31
2022/03/19 08:24:13;;;;;;;28.77;19.75;;;10.10;73.10;;;;;;2602775;54;20031;31
2022/03/19 08:26:48;;;;;;;30.90;20.17;;;10.10;71.20;;;;;;2719592;39;21441;31
2022/03/19 08:29:25;;;;;;;27.95;18.67;;;10.30;71.00;;;;;;2602145;54;20056;31
2022/03/19 08:32:02;;;;;;;31.95;19.60;;;10.40;73.30;;;;;;2621272;46;20033;31
2022/03/19 08:34:38;;;;;;;33.60;19.25;;;10.50;72.50;;;;;;2603087;54;20889;31
2022/03/19 08:37:14;;;;;;;30.83;18.55;;;10.60;71.60;;;;;;2602651;54;20023;31
2022/03/19 08:42:43;;;;;;;28.58;19.60;;;10.80;69.70;;;;;;2621588;46;20034;31
2022/03/19 08:45:18;;;;;;;30.20;18.80;;;10.90;69.90;;;;;;2602783;54;21183;31
2022/03/19 08:47:53;;;;;;;27.83;18.73;;;11.00;69.10;;;;;;2602439;54;20044;31
2022/03/19 08:50:29;;;;;;;30.20;19.23;;;11.30;69.10;;;;;;2602281;54;20080;31
2022/03/19 08:53:05;;;;;;;24.27;18.30;;;11.40;68.70;;;;;;2602137;54;20796;31
2022/03/19 08:55:43;;;;;;;25.42;17.27;;;11.50;67.60;;;;;;2701336;39;20477;31
2022/03/19 08:58:19;;;;;;;25.73;18.48;;;11.60;66.60;;;;;;2602746;54;20928;31
2022/03/19 09:00:57;;;;;;;27.47;18.50;;;11.50;66.30;;;;;;2602640;54;20109;31
2022/03/19 09:03:32;;;;;;;24.25;16.75;;;11.50;66.10;;;;;;2602873;54;20841;31
2022/03/19 09:06:14;;;;;;;23.58;16.98;;;11.50;66.00;;;;;;2602569;54;20049;31
2022/03/19 09:08:49;;;;;;;29.85;16.73;;;11.60;66.60;;;;;;2621317;46;20109;31
2022/03/19 09:11:29;;;;;;;23.57;15.47;;;11.70;64.80;;;;;;2621216;46;20037;31
2022/03/19 09:14:04;;;;;;;20.83;16.02;;;11.70;64.40;;;;;;2601747;54;20246;31
2022/03/19 09:16:43;;;;;;;22.17;14.63;;;11.60;64.80;;;;;;2700222;39;20440;31
2022/03/19 09:19:15;;;;;;;21.15;12.80;;;11.70;61.10;;;;;;2602733;54;21967;31
2022/03/19 09:21:50;;;;;;;20.65;12.98;;;11.60;61.70;;;;;;2602588;54;20038;31
2022/03/19 09:24:26;;;;;;;17.13;12.80;;;11.50;61.00;;;;;;2602576;54;20033;31
2022/03/19 09:27:07;;;;;;;20.75;13.35;;;11.60;62.10;;;;;;2602471;54;20104;31
2022/03/19 09:29:43;;;;;;;19.90;13.82;;;11.50;60.30;;;;;;2602577;54;20620;31
2022/03/19 09:32:20;;;;;;;21.55;14.70;;;11.50;61.80;;;;;;2602618;54;20573;31
2022/03/19 09:34:58;;;;;;;31.15;14.27;;;11.50;61.50;;;;;;2602626;54;20026;31
2022/03/19 09:37:34;;;;;;;21.25;14.38;;;11.70;61.60;;;;;;2602439;54;20026;31
2022/03/19 09:40:11;;;;;;;18.87;12.80;;;11.60;61.60;;;;;;2602572;54;20076;31
2022/03/19 09:42:53;;;;;;;20.73;14.25;;;11.60;60.40;;;;;;2621215;46;20038;31
2022/03/19 09:45:31;;;;;;;24.52;14.27;;;11.50;60.00;;;;;;2602556;54;20787;31
2022/03/19 09:48:06;;;;;;;27.03;13.93;;;11.50;59.70;;;;;;2602396;54;20038;31
2022/03/19 09:50:41;;;;;;;20.75;14.32;;;11.60;60.30;;;;;;2602583;54;21090;31
2022/03/19 09:53:18;;;;;;;20.75;13.60;;;11.40;60.00;;;;;;2620885;46;20023;31
2022/03/19 09:55:57;;;;;;;16.92;12.02;;;11.40;60.20;;;;;;2602081;54;20565;31
2022/03/19 09:58:37;;;;;;;21.20;12.85;;;11.40;60.80;;;;;;2601741;54;20865;31
2022/03/19 10:01:13;;;;;;;18.20;11.85;;;11.50;60.20;;;;;;2602535;54;21611;31
2022/03/19 10:03:52;;;;;;;;;;;11.50;58.60;;;;;;2602833;54;20611;31
2022/03/19 10:09:23;;;;;;;17.30;12.00;;;11.50;59.50;;;;;;2602523;54;20105;31
2022/03/19 10:12:00;;;;;;;21.15;11.98;;;11.50;60.00;;;;;;2602613;54;20042;31
2022/03/19 10:14:39;;;;;;;17.85;11.85;;;11.60;60.50;;;;;;2602399;54;20876;31
2022/03/19 10:17:17;;;;;;;16.20;11.80;;;11.70;60.50;;;;;;2620569;46;20039;31
2022/03/19 10:19:54;;;;;;;23.20;13.13;;;11.70;59.40;;;;;;2602570;54;20069;31
2022/03/19 10:22:31;;;;;;;19.50;13.50;;;11.70;59.10;;;;;;2620710;46;20141;31
2022/03/19 10:25:11;;;;;;;27.47;13.03;;;11.60;60.00;;;;;;2700659;39;20396;31
2022/03/19 10:27:47;;;;;;;19.48;12.75;;;11.60;59.80;;;;;;2602656;54;20885;31
2022/03/19 10:30:28;;;;;;;30.30;13.40;;;11.60;60.90;;;;;;2601673;54;20113;31
2022/03/19 10:33:04;;;;;;;21.23;12.98;;;11.50;59.00;;;;;;2602417;54;21135;31
2022/03/19 10:35:42;;;;;;;19.53;11.60;;;11.40;59.00;;;;;;2602339;54;20038;31
2022/03/19 10:38:22;;;;;;;16.90;11.40;;;11.50;59.60;;;;;;2602302;54;20140;31
2022/03/19 10:40:57;;;;;;;17.65;11.40;;;11.70;62.40;;;;;;2621250;47;20894;31
2022/03/19 10:43:33;;;;;;;17.65;10.75;;;11.80;58.90;;;;;;2602313;54;20592;31
2022/03/19 10:46:11;;;;;;;17.20;10.65;;;11.80;58.90;;;;;;2601670;54;20801;31
2022/03/19 10:48:54;;;;;;;17.35;10.82;;;11.80;58.30;;;;;;2602183;54;20744;31
2022/03/19 10:51:28;;;;;;;15.10;10.80;;;11.60;57.50;;;;;;2601693;54;20889;31
2022/03/19 10:54:04;;;;;;;13.23;9.90;;;11.60;57.20;;;;;;2602223;54;20031;31
2022/03/19 10:56:39;;;;;;;;;;;11.40;56.60;;;;;;2602518;54;20023;31
2022/03/19 10:59:15;;;;;;;17.90;11.40;;;11.40;58.00;;;;;;2620817;47;19941;31
2022/03/19 11:01:55;;;;;;;17.83;11.77;;;11.30;58.20;;;;;;2601991;54;20868;31
2022/03/19 11:04:32;;;;;;;15.18;10.30;;;11.10;57.10;;;;;;2620619;47;20038;31
2022/03/19 11:07:08;;;;;;;17.95;11.40;;;11.10;58.50;;;;;;2602094;54;20026;31
2022/03/19 11:09:46;;;;;;;18.77;12.83;;;11.10;59.40;;;;;;2603147;54;21894;31
2022/03/19 11:12:23;;;;;;;17.85;11.60;;;11.10;58.90;;;;;;2602890;54;20709;31
2022/03/19 11:15:00;;;;;;;16.67;12.02;;;11.10;58.60;;;;;;2603006;54;20779;31
2022/03/19 11:17:40;;;;;;;20.73;12.07;;;11.10;59.20;;;;;;2603067;54;20056;31
2022/03/19 11:20:16;;;;;;;22.08;12.65;;;11.00;60.00;;;;;;2602312;54;20769;31
2022/03/19 11:22:52;;;;;;;18.30;13.00;;;11.00;59.60;;;;;;2603049;54;20026;31
2022/03/19 11:28:00;;;;;;;17.27;11.55;;;10.80;58.50;;;;;;2603178;54;20045;31
2022/03/19 11:30:36;;;;;;;18.80;11.57;;;10.80;59.20;;;;;;2621280;46;20796;31
2022/03/19 11:33:20;;;;;;;18.30;11.80;;;10.70;59.40;;;;;;2603013;54;20038;31
2022/03/19 11:36:10;;;;;;;15.83;12.00;;;10.80;59.40;;;;;;2602950;54;20034;31
2022/03/19 11:38:51;;;;;;;18.30;12.13;;;10.70;58.90;;;;;;2603071;54;20054;31
2022/03/19 11:41:29;;;;;;;16.05;10.60;;;10.70;59.30;;;;;;2621628;46;20889;31
2022/03/19 11:44:23;;;;;;;14.23;9.90;;;10.60;57.00;;;;;;2602611;54;20923;31
2022/03/19 11:47:02;;;;;;;17.02;11.52;;;10.60;57.20;;;;;;2602841;54;20803;31
2022/03/19 11:49:52;;;;;;;19.27;13.17;;;10.50;58.70;;;;;;2603070;54;20077;31
2022/03/19 11:52:53;;;;;;;20.83;14.10;;;10.60;58.60;;;;;;2602901;54;20052;31
2022/03/19 11:55:33;;;;;;;20.90;13.70;;;10.60;58.90;;;;;;2602985;54;21211;31
2022/03/19 11:58:11;;;;;;;19.03;14.43;;;10.50;58.80;;;;;;2621671;46;20054;31
2022/03/19 12:00:47;;;;;;;22.00;12.40;;;10.50;59.20;;;;;;2603042;54;21180;31
2022/03/19 12:03:25;;;;;;;19.50;12.18;;;10.50;58.40;;;;;;2602962;54;20898;31
2022/03/19 12:06:05;;;;;;;26.65;13.10;;;10.50;58.30;;;;;;2602961;54;21112;31
2022/03/19 12:08:40;;;;;;;17.35;12.30;;;10.50;58.50;;;;;;2602920;54;20739;31
2022/03/19 12:11:17;;;;;;;17.15;12.25;;;10.50;58.80;;;;;;2621469;46;20030;31
2022/03/19 12:13:53;;;;;;;18.42;13.05;;;10.50;58.10;;;;;;2602736;54;20892;31
2022/03/19 12:16:42;;;;;;;24.00;12.97;;;10.50;58.70;;;;;;2602748;54;20957;31
2022/03/19 12:19:19;;;;;;;17.20;12.70;;;10.50;58.20;;;;;;2602474;54;20116;31
2022/03/19 12:22:02;;;;;;;19.47;11.73;;;10.50;59.70;;;;;;2602826;54;20738;31
2022/03/19 12:24:37;;;;;;;23.20;12.50;;;10.40;58.10;;;;;;2602952;54;20878;31
2022/03/19 12:27:14;;;;;;;17.55;12.25;;;10.40;58.80;;;;;;2603003;54;20895;31
2022/03/19 12:29:49;;;;;;;16.90;13.52;;;10.30;57.90;;;;;;2602625;54;20042;31
2022/03/19 12:32:25;;;;;;;22.10;12.10;;;10.30;57.80;;;;;;2602963;54;20034;31
2022/03/19 12:35:02;;;;;;;19.60;13.25;;;10.20;58.80;;;;;;2602644;54;20611;31
2022/03/19 12:37:52;;;;;;;21.15;13.60;;;10.10;59.10;;;;;;2602863;54;20882;31
2022/03/19 12:40:27;;;;;;;18.08;11.73;;;10.20;59.70;;;;;;2602871;54;20170;31
2022/03/19 12:43:04;;;;;;;16.35;10.65;;;10.10;58.40;;;;;;2620705;46;20023;31
2022/03/19 12:45:40;;;;;;;18.20;11.82;;;10.20;57.80;;;;;;2620976;46;20968;31
2022/03/19 12:48:15;;;;;;;21.52;14.82;;;10.20;62.70;;;;;;2621451;46;20123;31
2022/03/19 12:50:57;;;;;;;20.50;13.70;;;10.30;60.20;;;;;;2602627;54;20027;31
2022/03/19 12:53:35;;;;;;;26.20;14.80;;;10.30;60.00;;;;;;2610708;46;20375;31
2022/03/19 12:56:15;;;;;;;21.30;14.98;;;10.20;59.80;;;;;;2601836;54;20096;31
2022/03/19 12:58:53;;;;;;;22.75;13.80;;;10.20;60.10;;;;;;2602032;54;20819;31
2022/03/19 13:01:30;;;;;;;22.00;14.20;;;10.20;60.40;;;;;;2621130;46;20766;31
2022/03/19 13:04:08;;;;;;;16.83;12.10;;;10.20;60.50;;;;;;2612446;46;20593;31
2022/03/19 13:06:45;;;;;;;19.43;13.70;;;10.10;60.20;;;;;;2602816;54;20766;31
2022/03/19 13:09:34;;;;;;;18.52;12.55;;;10.20;59.30;;;;;;2602479;54;20792;31
2022/03/19 13:12:12;;;;;;;18.83;13.05;;;10.20;59.40;;;;;;2602513;54;20023;31
2022/03/19 13:14:50;;;;;;;17.40;12.32;;;10.20;59.30;;;;;;2612109;46;20955;31
2022/03/19 13:17:25;;;;;;;19.77;11.88;;;10.20;58.60;;;;;;2601676;54;20038;31
2022/03/19 13:20:10;;;;;;;18.77;11.90;;;10.20;57.80;;;;;;2601975;54;20061;31
2022/03/19 13:22:46;;;;;;;20.97;13.23;;;10.20;58.00;;;;;;2700240;39;21681;31
2022/03/19 13:25:24;;;;;;;21.67;12.07;;;10.20;58.20;;;;;;2602507;54;20026;31
2022/03/19 13:28:07;;;;;;;20.17;13.80;;;10.20;58.60;;;;;;2602576;54;20022;31
2022/03/19 13:30:44;;;;;;;18.95;10.70;;;10.30;59.20;;;;;;2700658;39;21393;31
2022/03/19 13:33:22;;;;;;;17.70;12.33;;;10.30;58.00;;;;;;2602000;54;20022;31
2022/03/19 13:36:00;;;;;;;24.67;13.60;;;10.20;58.40;;;;;;2601888;54;20027;31
2022/03/19 13:38:34;;;;;;;27.25;13.68;;;10.20;58.90;;;;;;2602538;54;20906;31
2022/03/19 13:41:23;;;;;;;20.58;13.20;;;10.20;58.90;;;;;;2602735;54;20037;31
2022/03/19 13:44:00;;;;;;;18.88;12.65;;;10.20;59.30;;;;;;2602494;54;20899;31
2022/03/19 13:46:36;;;;;;;16.97;11.97;;;10.10;58.60;;;;;;2602547;54;20069;31
2022/03/19 13:49:17;;;;;;;;;;;10.10;58.90;;;;;;2602594;54;20241;31
2022/03/19 13:51:53;;;;;;;20.48;14.07;;;10.10;57.70;;;;;;2621224;46;19984;31
2022/03/19 13:54:45;;;;;;;16.75;11.88;;;10.10;57.40;;;;;;2602395;54;20918;31
2022/03/19 13:57:24;;;;;;;19.38;12.77;;;10.10;58.40;;;;;;2602539;54;20072;31
2022/03/19 14:00:06;;;;;;;21.75;12.15;;;10.10;58.30;;;;;;2602627;54;20939;31
2022/03/19 14:02:54;;;;;;;24.08;14.73;;;10.10;58.10;;;;;;2602389;54;20863;31
2022/03/19 14:05:30;;;;;;;21.00;13.90;;;10.10;58.30;;;;;;2621039;46;20026;31
2022/03/19 14:08:07;;;;;;;20.70;13.20;;;10.00;56.70;;;;;;2602579;54;20112;31
2022/03/19 14:10:43;;;;;;;17.13;12.00;;;10.00;57.20;;;;;;2601605;54;20027;31
2022/03/19 14:13:25;;;;;;;17.90;13.10;;;10.00;57.20;;;;;;2602519;54;20030;31
2022/03/19 14:15:59;;;;;;;24.60;13.95;;;10.10;57.80;;;;;;2608548;46;20073;31
2022/03/19 14:18:38;;;;;;;15.85;11.55;;;10.00;57.70;;;;;;2701144;39;20467;31
2022/03/19 14:21:14;;;;;;;24.80;11.75;;;10.10;57.80;;;;;;2719103;39;20559;31
2022/03/19 14:23:49;;;;;;;16.38;11.15;;;10.00;56.30;;;;;;2602284;54;20117;31
2022/03/19 14:26:24;;;;;;;20.88;12.07;;;10.00;54.70;;;;;;2602163;54;20807;31
2022/03/19 14:29:09;;;;;;;19.13;11.82;;;9.90;56.50;;;;;;2601782;54;20774;31
2022/03/19 14:31:44;;;;;;;19.60;14.20;;;9.90;57.20;;;;;;2621060;47;20765;31
2022/03/19 14:34:21;;;;;;;19.90;11.20;;;9.90;57.00;;;;;;2700847;39;21339;31
2022/03/19 14:36:57;;;;;;;17.47;10.67;;;9.80;56.10;;;;;;2602922;47;20057;31
2022/03/19 14:39:33;;;;;;;18.43;11.47;;;9.80;56.00;;;;;;2601563;54;20289;31
2022/03/19 14:42:10;;;;;;;18.40;13.48;;;9.80;56.80;;;;;;2613637;47;20243;31
2022/03/19 14:44:53;;;;;;;18.85;12.98;;;9.80;57.70;;;;;;2603117;54;20061;31
2022/03/19 14:47:30;;;;;;;24.90;13.63;;;9.80;58.20;;;;;;2603077;54;20054;31
2022/03/19 14:50:04;;;;;;;19.60;13.50;;;9.90;58.20;;;;;;2621610;46;21827;31
2022/03/19 14:52:38;;;;;;;20.20;12.87;;;9.80;57.40;;;;;;2603242;54;20330;31
2022/03/19 14:55:13;;;;;;;16.60;12.50;;;9.90;57.40;;;;;;2603052;54;20915;31
2022/03/19 14:57:48;;;;;;;21.25;14.52;;;9.80;56.60;;;;;;2603028;54;20027;31
2022/03/19 15:00:27;;;;;;;15.20;11.65;;;9.80;57.20;;;;;;2618387;46;20100;31
2022/03/19 15:03:03;;;;;;;17.75;11.75;;;9.80;57.10;;;;;;2602346;54;20038;31
2022/03/19 15:05:38;;;;;;;19.00;12.23;;;9.80;57.30;;;;;;2602980;54;20546;31
2022/03/19 15:08:27;;;;;;;19.95;11.88;;;9.80;57.60;;;;;;2621627;46;20037;31
2022/03/19 15:11:24;;;;;;;20.15;12.48;;;9.80;57.30;;;;;;2603149;54;20026;31
2022/03/19 15:14:17;;;;;;;18.50;12.80;;;9.80;57.40;;;;;;2603107;54;20541;31
2022/03/19 15:16:56;;;;;;;19.45;12.98;;;9.70;57.70;;;;;;2700668;39;20537;31
2022/03/19 15:19:40;;;;;;;22.52;12.20;;;9.80;57.80;;;;;;2603151;54;20034;31
2022/03/19 15:22:25;;;;;;;23.65;14.80;;;9.80;57.70;;;;;;2621634;46;20877;31
2022/03/19 15:25:00;;;;;;;23.43;14.77;;;9.70;57.90;;;;;;2602240;54;20038;31
2022/03/19 15:27:37;;;;;;;20.30;14.70;;;9.70;58.40;;;;;;2616017;46;21890;31
2022/03/19 15:30:14;;;;;;;22.42;14.20;;;9.70;59.70;;;;;;2602203;54;20097;31
2022/03/19 15:32:52;;;;;;;24.67;15.43;;;9.70;59.80;;;;;;2603117;54;20027;31
2022/03/19 15:35:48;;;;;;;26.27;16.02;;;9.60;59.40;;;;;;2602235;54;20249;31
2022/03/19 15:38:48;;;;;;;24.10;16.67;;;9.60;59.40;;;;;;2603167;54;20018;31
2022/03/19 15:44:42;;;;;;;23.35;16.05;;;9.60;59.60;;;;;;2602820;54;20800;31
2022/03/19 15:47:19;;;;;;;19.95;14.60;;;9.60;59.80;;;;;;2602177;54;20057;31
2022/03/19 15:50:15;;;;;;;24.50;16.58;;;9.60;59.80;;;;;;2621194;46;20888;31
2022/03/19 15:53:29;;;;;;;26.08;16.63;;;9.50;60.30;;;;;;2602756;54;20703;31
2022/03/19 15:59:48;;;;;;;20.73;14.77;;;9.40;60.40;;;;;;2602752;54;20051;31
2022/03/19 16:09:53;;;;;;;24.27;16.00;;;9.30;60.40;;;;;;2602888;54;20534;31
2022/03/19 16:12:50;;;;;;;27.80;16.87;;;9.30;60.60;;;;;;2791282;31;20629;31
2022/03/19 16:15:31;;;;;;;26.30;15.85;;;9.30;60.90;;;;;;2701230;39;20604;31
2022/03/19 16:18:15;;;;;;;24.60;16.50;;;9.20;61.40;;;;;;2602029;54;20068;31
2022/03/19 16:20:52;;;;;;;23.13;16.10;;;9.20;61.40;;;;;;2621144;46;20804;31
2022/03/19 16:23:31;;;;;;;25.43;16.30;;;9.20;62.80;;;;;;2621337;46;20802;31
2022/03/19 16:26:15;;;;;;;24.40;16.23;;;9.10;61.40;;;;;;2602048;54;20025;31
2022/03/19 16:28:56;;;;;;;21.77;14.40;;;9.10;62.00;;;;;;2603001;54;20881;31
2022/03/19 16:31:30;;;;;;;24.23;15.50;;;9.00;61.80;;;;;;2602739;54;20032;31
2022/03/19 16:34:07;;;;;;;23.13;14.82;;;9.00;61.80;;;;;;2602957;54;20030;31
2022/03/19 16:39:31;;;;;;;25.77;13.07;;;8.90;61.30;;;;;;2603132;54;20126;31
2022/03/19 16:42:06;;;;;;;24.13;14.05;;;8.90;60.90;;;;;;2602863;54;20933;31
2022/03/19 16:44:45;;;;;;;21.63;12.65;;;8.80;60.90;;;;;;2602349;54;20030;31
2022/03/19 16:47:20;;;;;;;20.70;12.63;;;8.70;61.50;;;;;;2602933;54;20869;31
2022/03/19 16:50:03;;;;;;;26.58;14.05;;;8.70;61.20;;;;;;2602692;54;20637;31
2022/03/19 16:52:40;;;;;;;20.27;13.13;;;8.60;60.50;;;;;;2621279;46;20088;31
2022/03/19 16:55:17;;;;;;;22.48;13.18;;;8.60;61.10;;;;;;2602949;54;20031;31
2022/03/19 16:57:54;;;;;;;20.02;12.48;;;8.50;61.30;;;;;;2602995;54;20031;31
2022/03/19 17:00:32;;;;;;;23.55;13.32;;;8.50;61.10;;;;;;2701241;39;20598;31
2022/03/19 17:03:09;;;;;;;21.75;12.90;;;8.40;61.10;;;;;;2620826;46;20036;31
2022/03/19 17:05:46;;;;;;;20.03;11.90;;;8.30;61.10;;;;;;2602766;54;20026;31
2022/03/19 17:08:24;;;;;;;23.92;13.23;;;8.30;61.40;;;;;;2621314;46;20790;31
2022/03/19 17:11:00;;;;;;;20.65;12.57;;;8.30;61.70;;;;;;2621414;46;20920;31
2022/03/19 17:13:35;;;;;;;;;;;8.20;61.50;;;;;;2602862;54;20042;31
2022/03/19 17:16:14;;;;;;;18.67;12.33;;;8.20;61.50;;;;;;2602881;54;19935;31
2022/03/19 17:18:50;;;;;;;20.20;13.60;;;8.10;61.50;;;;;;2602794;54;21074;31
2022/03/19 17:21:26;;;;;;;22.10;13.80;;;8.10;61.80;;;;;;2601924;54;20944;31
2022/03/19 17:24:04;;;;;;;20.65;12.90;;;8.00;62.10;;;;;;2602683;54;20060;31
2022/03/19 17:26:50;;;;;;;22.00;15.02;;;8.00;62.00;;;;;;2602662;54;20620;31
2022/03/19 17:29:31;;;;;;;27.50;13.65;;;7.90;62.10;;;;;;2602744;54;20090;31
2022/03/19 17:32:06;;;;;;;26.50;14.77;;;7.80;62.30;;;;;;2701232;39;20632;31
2022/03/19 17:34:46;;;;;;;29.20;13.80;;;7.80;63.00;;;;;;2701108;39;20489;31
2022/03/19 17:37:22;;;;;;;23.35;14.40;;;7.70;62.70;;;;;;2602849;54;20870;31
2022/03/19 17:40:00;;;;;;;20.30;13.00;;;7.70;62.90;;;;;;2602861;54;20128;31
2022/03/19 17:42:36;;;;;;;24.17;14.07;;;7.70;63.00;;;;;;2701081;39;20667;31
2022/03/19 17:45:15;;;;;;;23.37;15.17;;;7.60;63.00;;;;;;2620913;46;20097;31
2022/03/19 17:47:53;;;;;;;20.43;14.13;;;7.60;63.30;;;;;;2621200;46;21631;31
2022/03/19 17:50:31;;;;;;;24.25;14.05;;;7.50;63.60;;;;;;2602820;54;21151;31
2022/03/19 17:55:59;;;;;;;23.73;15.32;;;7.50;64.30;;;;;;2602277;54;21013;31
2022/03/19 17:58:39;;;;;;;23.55;15.60;;;7.40;64.60;;;;;;2602776;54;20030;31
2022/03/19 18:01:16;;;;;;;32.88;18.80;;;7.30;64.90;;;;;;2602832;54;20888;31
2022/03/19 18:03:52;;;;;;;44.58;24.38;;;7.30;65.10;;;;;;2621221;46;20889;31
2022/03/19 18:06:35;;;;;;;;;;;7.20;65.70;;;;;;2602845;54;20048;31
2022/03/19 18:09:11;;;;;;;48.63;25.15;;;7.10;65.60;;;;;;2719553;39;20483;31
2022/03/19 18:11:50;;;;;;;37.10;20.02;;;7.10;66.00;;;;;;2601913;54;20026;31
2022/03/19 18:14:26;;;;;;;31.08;17.77;;;7.00;66.10;;;;;;2616338;46;20788;31
2022/03/19 18:17:03;;;;;;;37.00;20.67;;;6.90;66.10;;;;;;2602340;54;20072;31
2022/03/19 18:19:45;;;;;;;30.37;19.90;;;6.90;66.30;;;;;;2602431;54;20038;31
2022/03/19 18:22:27;;;;;;;21.75;16.67;;;6.80;66.60;;;;;;2602513;54;20111;31
2022/03/19 18:25:03;;;;;;;49.40;18.02;;;6.70;66.70;;;;;;2602425;54;20038;31
2022/03/19 18:30:13;;;;;;;33.65;23.80;;;6.70;67.10;;;;;;2602629;54;20901;31
2022/03/19 18:32:48;;;;;;;29.63;17.90;;;6.60;67.30;;;;;;2601925;54;20309;31
2022/03/19 18:35:26;;;;;;;29.20;18.10;;;6.60;67.40;;;;;;2601874;54;20030;31
2022/03/19 18:38:05;;;;;;;29.35;16.73;;;6.50;67.50;;;;;;2620943;47;20306;31
2022/03/19 18:40:42;;;;;;;31.45;17.50;;;6.40;67.60;;;;;;2602481;54;20881;31
2022/03/19 18:43:18;;;;;;;26.35;17.13;;;6.50;71.10;;;;;;2620546;47;20031;31
2022/03/19 18:45:53;;;;;;;28.07;17.10;;;6.40;67.90;;;;;;2602651;54;20858;31
2022/03/19 18:48:32;;;;;;;22.10;16.40;;;6.40;69.70;;;;;;2618425;47;20022;31
2022/03/19 18:51:17;;;;;;;24.20;16.50;;;6.30;67.90;;;;;;2602191;54;20027;31
2022/03/19 18:53:57;;;;;;;28.57;17.40;;;6.30;68.00;;;;;;2602156;54;20093;31
2022/03/19 18:56:34;;;;;;;27.60;17.15;;;6.20;68.10;;;;;;2602148;54;20125;31
2022/03/19 18:59:10;;;;;;;34.20;19.33;;;6.20;68.20;;;;;;2602412;54;20034;31
2022/03/19 19:01:50;;;;;;;31.97;17.80;;;6.10;67.90;;;;;;2602426;54;20030;31
2022/03/19 19:04:28;;;;;;;30.35;18.05;;;6.00;68.10;;;;;;2602380;54;20258;31